Time;durP1;ratioP1;P1;durP2;ratioP2;P2;SDS_P1;SDS_P2;PMS_P1;PMS_P2;Temp;Humidity;BMP_temperature;BMP_pressure;BME280_temperature;BME280_humidity;BME280_pressure;Samples;Min_cycle;Max_cycle;Signal;HPM_P1;HPM_P2
2021/07/04 00:00:28;;;;;;;23.23;15.50;;;;;7.90;101634.00;;;;5110346;28;20128;-75
2021/07/04 00:02:56;;;;;;;18.90;15.52;;;;;7.80;101625.00;;;;5109448;28;20111;-75
2021/07/04 00:05:25;;;;;;;18.05;15.00;;;;;7.70;101623.00;;;;5109804;28;20031;-77
2021/07/04 00:07:52;;;;;;;21.65;15.32;;;;;7.70;101627.00;;;;5109893;28;20024;-77
2021/07/04 00:10:25;;;;;;;21.23;15.50;;;;;7.70;101618.00;;;;5109687;28;20031;-77
2021/07/04 00:12:51;;;;;;;24.13;16.38;;;;;7.60;101619.00;;;;5109616;28;20085;-78
2021/07/04 00:15:21;;;;;;;21.45;15.02;;;;;7.60;101626.00;;;;5090923;28;20482;-77
2021/07/04 00:17:48;;;;;;;19.88;14.32;;;;;7.60;101629.00;;;;5109515;28;20027;-77
2021/07/04 00:20:17;;;;;;;22.35;15.40;;;;;7.60;101601.00;;;;5109324;28;20030;-77
2021/07/04 00:22:44;;;;;;;21.77;15.10;;;;;7.60;101628.00;;;;5109006;28;20024;-76
2021/07/04 00:25:13;;;;;;;18.85;15.52;;;;;7.60;101623.00;;;;5109011;28;20402;-77
2021/07/04 00:27:39;;;;;;;21.02;17.50;;;;;7.60;101640.00;;;;5108898;28;20027;-77
2021/07/04 00:30:08;;;;;;;17.77;13.48;;;;;7.60;101634.00;;;;5109189;28;20398;-76
2021/07/04 00:32:35;;;;;;;14.63;12.50;;;;;7.50;101624.00;;;;5109180;28;20036;-76
2021/07/04 00:35:02;;;;;;;22.75;14.13;;;;;7.50;101608.00;;;;5109073;28;20032;-76
2021/07/04 00:37:28;;;;;;;19.00;14.05;;;;;7.40;101606.00;;;;5109393;28;20027;-76
2021/07/04 00:39:55;;;;;;;21.80;15.55;;;;;7.50;101608.00;;;;5108896;28;20035;-76
2021/07/04 00:42:21;;;;;;;25.38;16.23;;;;;7.50;101636.00;;;;5108680;28;20075;-76
2021/07/04 00:44:48;;;;;;;23.63;17.30;;;;;7.60;101621.00;;;;5109412;28;20032;-77
2021/07/04 00:47:15;;;;;;;25.33;17.55;;;;;7.70;101632.00;;;;5109046;28;20024;-77
2021/07/04 00:49:42;;;;;;;24.20;16.00;;;;;7.60;101642.00;;;;5108654;28;20043;-77
2021/07/04 00:52:09;;;;;;;25.25;17.27;;;;;7.60;101644.00;;;;5108607;28;20035;-77
2021/07/04 00:54:36;;;;;;;28.42;18.98;;;;;7.60;101616.00;;;;5108039;28;20410;-76
2021/07/04 00:57:03;;;;;;;26.25;19.33;;;;;7.60;101628.00;;;;5107374;28;20051;-76
2021/07/04 00:59:30;;;;;;;30.08;18.95;;;;;7.70;101623.00;;;;5107915;28;20106;-76
2021/07/04 01:01:58;;;;;;;28.10;22.27;;;;;7.70;101623.00;;;;5108890;28;20395;-76
2021/07/04 01:04:27;;;;;;;24.92;20.00;;;;;7.60;101643.00;;;;5108344;28;20031;-76
2021/07/04 01:06:55;;;;;;;23.48;18.30;;;;;7.70;101641.00;;;;5107666;28;20025;-76
2021/07/04 01:09:22;;;;;;;24.55;18.20;;;;;7.70;101635.00;;;;5110729;28;20031;-77
2021/07/04 01:11:49;;;;;;;26.33;17.40;;;;;7.70;101619.00;;;;5133215;28;19996;-76
2021/07/04 01:14:16;;;;;;;23.85;18.42;;;;;7.70;101635.00;;;;5133954;28;20087;-76
2021/07/04 01:16:44;;;;;;;23.23;18.13;;;;;7.60;101634.00;;;;5115348;28;20036;-76
2021/07/04 01:19:14;;;;;;;27.35;18.95;;;;;7.50;101627.00;;;;5109133;28;20027;-76
2021/07/04 01:21:43;;;;;;;30.70;23.17;;;;;7.60;101622.00;;;;5108614;28;20719;-77
2021/07/04 01:24:12;;;;;;;35.90;24.20;;;;;7.70;101631.00;;;;5108481;28;20058;-77
2021/07/04 01:26:39;;;;;;;30.45;23.67;;;;;7.60;101639.00;;;;5108572;28;20055;-77
2021/07/04 01:29:06;;;;;;;27.67;20.55;;;;;7.50;101641.00;;;;5089593;28;20034;-77
2021/07/04 01:31:33;;;;;;;24.83;20.13;;;;;7.60;101604.00;;;;5107563;28;20028;-77
2021/07/04 01:34:00;;;;;;;28.65;19.50;;;;;7.50;101616.00;;;;5108154;28;20073;-77
2021/07/04 01:36:27;;;;;;;23.30;19.75;;;;;7.50;101653.00;;;;5107660;28;20077;-76
2021/07/04 01:38:54;;;;;;;28.83;20.50;;;;;7.50;101604.00;;;;5108240;28;20028;-77
2021/07/04 01:41:21;;;;;;;31.00;19.02;;;;;7.50;101621.00;;;;5107923;28;20509;-77
2021/07/04 01:43:47;;;;;;;21.73;17.83;;;;;7.40;101618.00;;;;5108055;28;20035;-76
2021/07/04 01:46:14;;;;;;;28.23;18.33;;;;;7.40;101650.00;;;;5108359;28;20016;-77
2021/07/04 01:48:40;;;;;;;26.20;19.10;;;;;7.30;101638.00;;;;5108188;28;20065;-77
2021/07/04 01:51:07;;;;;;;23.58;18.85;;;;;7.20;101642.00;;;;5107133;28;20035;-77
2021/07/04 01:53:35;;;;;;;27.83;19.00;;;;;7.10;101632.00;;;;5108005;28;20115;-77
2021/07/04 01:56:06;;;;;;;26.23;19.45;;;;;7.00;101618.00;;;;5107479;28;20080;-77
2021/07/04 01:58:33;;;;;;;26.88;18.45;;;;;7.00;101620.00;;;;5107713;28;20114;-77
2021/07/04 02:01:00;;;;;;;26.42;19.38;;;;;7.00;101640.00;;;;5107773;28;20737;-77
2021/07/04 02:03:26;;;;;;;30.65;23.63;;;;;7.00;101617.00;;;;5107590;28;20028;-75
2021/07/04 02:05:53;;;;;;;36.33;24.38;;;;;7.00;101631.00;;;;5107792;28;20035;-76
2021/07/04 02:08:20;;;;;;;33.80;25.63;;;;;7.00;101633.00;;;;5107666;28;20397;-76
2021/07/04 02:10:46;;;;;;;57.70;39.13;;;;;7.00;101647.00;;;;5107648;28;20600;-75
2021/07/04 02:13:13;;;;;;;36.33;28.95;;;;;6.90;101652.00;;;;5107237;28;20059;-76
2021/07/04 02:15:41;;;;;;;45.33;29.80;;;;;6.90;101642.00;;;;5088808;28;20027;-76
2021/07/04 02:18:12;;;;;;;42.13;30.55;;;;;6.90;101636.00;;;;5107287;28;20114;-76
2021/07/04 02:20:42;;;;;;;35.92;26.60;;;;;7.00;101644.00;;;;5107353;28;20498;-75
2021/07/04 02:23:13;;;;;;;29.63;22.55;;;;;6.90;101649.00;;;;5107433;28;20027;-76
2021/07/04 02:25:42;;;;;;;32.03;22.17;;;;;6.80;101620.00;;;;5107494;28;20399;-76
2021/07/04 02:28:11;;;;;;;31.38;23.92;;;;;6.70;101631.00;;;;5107303;28;20589;-75
2021/07/04 02:30:39;;;;;;;29.45;21.90;;;;;6.70;101641.00;;;;5107300;28;20034;-76
2021/07/04 02:33:07;;;;;;;34.47;21.83;;;;;6.70;101609.00;;;;5107274;28;20956;-76
2021/07/04 02:35:39;;;;;;;32.83;23.85;;;;;6.60;101636.00;;;;5107227;28;20089;-76
2021/07/04 02:38:07;;;;;;;34.50;23.48;;;;;6.70;101630.00;;;;5107521;28;20027;-76
2021/07/04 02:40:34;;;;;;;37.20;28.77;;;;;6.70;101626.00;;;;5107208;28;20491;-76
2021/07/04 02:43:02;;;;;;;31.75;22.77;;;;;6.60;101631.00;;;;5109645;28;20019;-76
2021/07/04 02:45:29;;;;;;;22.20;17.95;;;;;6.60;101613.00;;;;5111644;28;20039;-76
2021/07/04 02:47:56;;;;;;;20.40;17.25;;;;;6.60;101630.00;;;;5111580;28;20023;-76
2021/07/04 02:50:23;;;;;;;23.55;19.20;;;;;6.50;101635.00;;;;5111439;28;20042;-76
2021/07/04 02:52:52;;;;;;;28.85;19.08;;;;;6.60;101634.00;;;;5111489;28;21109;-75
2021/07/04 02:55:20;;;;;;;26.83;20.35;;;;;6.60;101625.00;;;;5111003;28;20031;-76
2021/07/04 02:57:47;;;;;;;27.00;19.30;;;;;6.60;101631.00;;;;5111051;28;20027;-76
2021/07/04 03:00:16;;;;;;;45.25;16.05;;;;;6.40;101630.00;;;;5111080;28;20428;-76
2021/07/04 03:02:43;;;;;;;25.08;17.10;;;;;6.50;101603.00;;;;5110851;28;20505;-76
2021/07/04 03:05:11;;;;;;;23.45;18.40;;;;;6.50;101597.00;;;;5110816;28;20537;-75
2021/07/04 03:07:38;;;;;;;23.25;16.63;;;;;6.50;101636.00;;;;5110962;28;20030;-75
2021/07/04 03:10:07;;;;;;;28.75;19.00;;;;;6.50;101604.00;;;;5110330;28;20032;-76
2021/07/04 03:12:34;;;;;;;23.70;17.10;;;;;6.50;101630.00;;;;5092899;28;20027;-76
2021/07/04 03:15:01;;;;;;;26.67;21.20;;;;;6.40;101599.00;;;;5111284;28;20483;-76
2021/07/04 03:17:28;;;;;;;33.63;24.02;;;;;6.40;101615.00;;;;5110580;28;20027;-76
2021/07/04 03:19:54;;;;;;;32.03;26.02;;;;;6.50;101599.00;;;;5110363;28;20019;-76
2021/07/04 03:22:22;;;;;;;35.50;26.92;;;;;6.50;101593.00;;;;5110424;28;20058;-76
2021/07/04 03:24:48;;;;;;;30.27;24.67;;;;;6.50;101621.00;;;;5110477;28;20051;-76
2021/07/04 03:27:15;;;;;;;35.03;23.23;;;;;6.40;101603.00;;;;5110428;28;20406;-76
2021/07/04 03:29:42;;;;;;;26.88;20.70;;;;;6.50;101608.00;;;;5110413;28;20141;-76
2021/07/04 03:32:08;;;;;;;21.80;19.40;;;;;6.50;101615.00;;;;5110649;28;20020;-76
2021/07/04 03:34:36;;;;;;;22.95;19.88;;;;;6.40;101613.00;;;;5110800;28;20039;-76
2021/07/04 03:37:02;;;;;;;21.67;18.20;;;;;6.50;101620.00;;;;5110855;28;20062;-76
2021/07/04 03:39:29;;;;;;;25.65;17.83;;;;;6.50;101604.00;;;;5110016;28;20391;-76
2021/07/04 03:41:56;;;;;;;24.38;16.80;;;;;6.60;101590.00;;;;5109985;28;20035;-76
2021/07/04 03:44:22;;;;;;;26.63;16.60;;;;;6.70;101648.00;;;;5110302;28;20034;-76
2021/07/04 03:46:49;;;;;;;21.20;14.70;;;;;6.60;101623.00;;;;5110291;28;20035;-76
2021/07/04 03:49:15;;;;;;;31.05;23.25;;;;;6.80;101628.00;;;;5109850;28;20466;-76
2021/07/04 03:51:42;;;;;;;38.95;27.63;;;;;6.60;101627.00;;;;5109914;28;20027;-76
2021/07/04 03:54:09;;;;;;;49.47;32.95;;;;;6.60;101619.00;;;;5109246;28;20023;-76
2021/07/04 03:56:36;;;;;;;53.55;33.30;;;;;6.40;101635.00;;;;5110240;28;20043;-76
2021/07/04 03:59:02;;;;;;;46.75;29.17;;;;;6.30;101635.00;;;;5110315;28;20111;-76
2021/07/04 04:01:29;;;;;;;40.47;27.60;;;;;6.30;101634.00;;;;5110734;28;20483;-76
2021/07/04 04:03:55;;;;;;;39.28;27.20;;;;;6.40;101625.00;;;;5110655;28;20041;-77
2021/07/04 04:06:22;;;;;;;38.13;26.02;;;;;6.40;101612.00;;;;5109603;28;20024;-76
2021/07/04 04:08:49;;;;;;;35.13;25.02;;;;;6.30;101633.00;;;;5110033;28;20042;-76
2021/07/04 04:11:15;;;;;;;31.45;23.20;;;;;6.20;101618.00;;;;5109766;28;20024;-77
2021/07/04 04:13:42;;;;;;;30.88;22.55;;;;;6.20;101626.00;;;;5109767;28;20024;-76
2021/07/04 04:16:08;;;;;;;32.20;23.10;;;;;6.10;101615.00;;;;5109675;28;20458;-77
2021/07/04 04:18:38;;;;;;;34.70;22.80;;;;;6.10;101628.00;;;;5109500;28;20407;-77
2021/07/04 04:21:06;;;;;;;30.27;23.08;;;;;6.00;101579.00;;;;5090708;28;20065;-77
2021/07/04 04:23:33;;;;;;;32.78;22.95;;;;;6.00;101593.00;;;;5109410;28;20031;-77
2021/07/04 04:26:01;;;;;;;30.73;20.27;;;;;5.90;101624.00;;;;5109536;28;20043;-77
2021/07/04 04:28:28;;;;;;;33.08;20.23;;;;;6.00;101615.00;;;;5109301;28;20053;-76
2021/07/04 04:30:55;;;;;;;29.95;19.92;;;;;5.90;101586.00;;;;5109399;28;20716;-77
2021/07/04 04:33:21;;;;;;;51.63;19.27;;;;;5.90;101603.00;;;;5109255;28;20027;-77
2021/07/04 04:35:48;;;;;;;121.10;30.65;;;;;5.80;101615.00;;;;5108857;28;20123;-77
2021/07/04 04:38:15;;;;;;;43.97;21.10;;;;;5.80;101589.00;;;;5109453;28;20495;-77
2021/07/04 04:40:42;;;;;;;44.47;23.52;;;;;5.80;101609.00;;;;5109245;28;20035;-77
2021/07/04 04:43:09;;;;;;;44.40;25.23;;;;;5.80;101586.00;;;;5109060;28;20806;-77
2021/07/04 04:45:35;;;;;;;41.15;21.20;;;;;5.80;101602.00;;;;5109105;28;20070;-77
2021/07/04 04:48:02;;;;;;;25.83;18.38;;;;;5.80;101619.00;;;;5108642;28;20031;-76
2021/07/04 04:50:29;;;;;;;34.03;18.60;;;;;5.70;101596.00;;;;5109294;28;20464;-77
2021/07/04 04:52:56;;;;;;;25.08;16.15;;;;;5.60;101626.00;;;;5109449;28;20036;-77
2021/07/04 04:55:22;;;;;;;21.13;16.50;;;;;5.70;101633.00;;;;5109165;28;20030;-77
2021/07/04 04:57:49;;;;;;;25.92;17.50;;;;;5.80;101613.00;;;;5108620;28;20114;-77
2021/07/04 05:00:16;;;;;;;25.45;18.00;;;;;5.70;101629.00;;;;5108236;28;20028;-77
2021/07/04 05:02:43;;;;;;;23.50;15.80;;;;;5.70;101615.00;;;;5108503;28;20643;-77
2021/07/04 05:05:09;;;;;;;22.42;17.30;;;;;5.80;101604.00;;;;5107459;28;20039;-77
2021/07/04 05:07:36;;;;;;;23.80;16.73;;;;;5.70;101605.00;;;;5108948;28;20095;-77
2021/07/04 05:10:04;;;;;;;23.58;16.38;;;;;5.60;101578.00;;;;5108461;28;20540;-77
2021/07/04 05:12:31;;;;;;;21.67;15.55;;;;;5.70;101607.00;;;;5108371;28;20089;-77
2021/07/04 05:14:59;;;;;;;17.77;13.02;;;;;5.70;101589.00;;;;5108388;28;20032;-77
2021/07/04 05:17:25;;;;;;;20.05;14.80;;;;;5.70;101572.00;;;;5108745;28;20521;-77
2021/07/04 05:19:52;;;;;;;23.27;15.15;;;;;5.70;101585.00;;;;5108928;28;20036;-77
2021/07/04 05:22:18;;;;;;;20.77;14.93;;;;;5.60;101614.00;;;;5108347;28;20031;-77
2021/07/04 05:24:45;;;;;;;20.15;14.95;;;;;5.70;101594.00;;;;5108361;28;20287;-77
2021/07/04 05:27:11;;;;;;;19.50;13.35;;;;;5.60;101561.00;;;;5108323;28;20054;-77
2021/07/04 05:29:38;;;;;;;14.40;12.18;;;;;5.50;101579.00;;;;5089316;28;20046;-77
2021/07/04 05:32:05;;;;;;;16.88;12.25;;;;;5.50;101614.00;;;;5108045;28;20055;-77
2021/07/04 05:34:31;;;;;;;17.08;13.43;;;;;5.40;101596.00;;;;5108114;28;20077;-77
2021/07/04 05:36:59;;;;;;;17.00;13.50;;;;;5.40;101608.00;;;;5107829;28;20080;-77
2021/07/04 05:39:27;;;;;;;20.65;13.82;;;;;5.30;101602.00;;;;5107820;28;20032;-77
2021/07/04 05:41:54;;;;;;;20.00;13.93;;;;;5.30;101614.00;;;;5108590;28;20023;-77
2021/07/04 05:44:21;;;;;;;26.27;15.35;;;;;5.30;101607.00;;;;5107584;28;20072;-77
2021/07/04 05:46:48;;;;;;;25.50;14.68;;;;;5.30;101628.00;;;;5107918;28;20087;-76
2021/07/04 05:49:16;;;;;;;24.58;17.35;;;;;5.30;101599.00;;;;5107425;28;20107;-77
2021/07/04 05:51:43;;;;;;;25.80;16.13;;;;;5.30;101612.00;;;;5108247;28;20398;-77
2021/07/04 05:54:10;;;;;;;20.50;15.88;;;;;5.30;101603.00;;;;5107991;28;20063;-77
2021/07/04 05:56:37;;;;;;;18.00;14.73;;;;;5.40;101595.00;;;;5107514;28;20560;-77
2021/07/04 05:59:04;;;;;;;22.88;15.90;;;;;5.40;101616.00;;;;5107574;28;20088;-77
2021/07/04 06:01:31;;;;;;;25.42;17.23;;;;;5.40;101615.00;;;;5089419;28;20457;-77
2021/07/04 06:03:57;;;;;;;27.17;16.40;;;;;5.30;101613.00;;;;5107962;28;20024;-77
2021/07/04 06:06:24;;;;;;;21.38;15.57;;;;;5.30;101620.00;;;;5107864;28;20554;-76
2021/07/04 06:08:51;;;;;;;20.55;16.35;;;;;5.30;101608.00;;;;5107628;28;20031;-76
2021/07/04 06:11:17;;;;;;;25.90;17.67;;;;;5.30;101608.00;;;;5106971;28;20024;-77
2021/07/04 06:13:44;;;;;;;28.80;18.45;;;;;5.30;101622.00;;;;5089331;28;20547;-77
2021/07/04 06:16:10;;;;;;;30.10;17.98;;;;;5.30;101625.00;;;;5107396;28;20023;-77
2021/07/04 06:18:37;;;;;;;28.05;18.58;;;;;5.30;101620.00;;;;5107534;28;20044;-77
2021/07/04 06:21:04;;;;;;;41.42;17.77;;;;;5.30;101606.00;;;;5107702;28;20075;-77
2021/07/04 06:23:31;;;;;;;32.28;18.15;;;;;5.40;101609.00;;;;5107213;28;20045;-77
2021/07/04 06:25:58;;;;;;;55.65;18.25;;;;;5.40;101614.00;;;;5106855;28;20035;-77
2021/07/04 06:28:24;;;;;;;22.58;13.82;;;;;5.30;101599.00;;;;5107471;28;20024;-77
2021/07/04 06:30:51;;;;;;;26.83;13.55;;;;;5.20;101588.00;;;;5107478;28;20114;-77
2021/07/04 06:33:17;;;;;;;15.73;13.35;;;;;5.20;101594.00;;;;5107469;28;21291;-77
2021/07/04 06:35:44;;;;;;;18.70;14.55;;;;;5.10;101573.00;;;;5107209;28;20049;-78
2021/07/04 06:38:11;;;;;;;15.93;13.75;;;;;5.10;101574.00;;;;5107083;28;20031;-77
2021/07/04 06:40:37;;;;;;;12.77;10.70;;;;;5.10;101592.00;;;;5107102;28;20432;-78
2021/07/04 06:43:04;;;;;;;16.52;12.57;;;;;5.20;101572.00;;;;5107065;28;20800;-77
2021/07/04 06:45:30;;;;;;;24.75;15.25;;;;;5.20;101576.00;;;;5106962;28;20515;-77
2021/07/04 06:47:57;;;;;;;40.58;20.20;;;;;5.10;101600.00;;;;5107409;28;20024;-76
2021/07/04 06:50:24;;;;;;;46.17;22.27;;;;;5.10;101570.00;;;;5107003;28;20035;-77
2021/07/04 06:52:50;;;;;;;52.70;24.25;;;;;5.10;101571.00;;;;5107050;28;20031;-77
2021/07/04 06:55:17;;;;;;;46.90;23.65;;;;;5.00;101605.00;;;;5107549;28;20036;-77
2021/07/04 06:57:44;;;;;;;33.63;19.75;;;;;5.00;101590.00;;;;5107203;28;20499;-76
2021/07/04 07:00:16;;;;;;;28.45;17.88;;;;;5.10;101563.00;;;;5107088;28;20081;-77
2021/07/04 07:02:43;;;;;;;39.60;15.50;;;;;5.00;101561.00;;;;5107190;28;20524;-77
2021/07/04 07:05:12;;;;;;;22.27;13.45;;;;;5.00;101548.00;;;;5106593;28;20430;-77
2021/07/04 07:07:39;;;;;;;19.08;15.40;;;;;4.90;101563.00;;;;5106786;28;20028;-78
2021/07/04 07:10:11;;;;;;;25.17;14.77;;;;;4.80;101561.00;;;;5106819;28;20032;-76
2021/07/04 07:12:41;;;;;;;19.88;12.65;;;;;4.60;101554.00;;;;5106767;28;20054;-76
2021/07/04 07:15:09;;;;;;;17.15;12.57;;;;;4.50;101572.00;;;;5106450;28;20023;-77
2021/07/04 07:17:35;;;;;;;17.33;12.60;;;;;4.50;101562.00;;;;5106949;28;20032;-76
2021/07/04 07:20:03;;;;;;;13.57;11.52;;;;;4.50;101545.00;;;;5106911;28;20024;-78
2021/07/04 07:22:30;;;;;;;15.25;12.25;;;;;4.60;101540.00;;;;5088150;28;20396;-77
2021/07/04 07:24:56;;;;;;;16.73;12.88;;;;;4.60;101563.00;;;;5106810;28;20533;-78
2021/07/04 07:27:23;;;;;;;16.08;12.43;;;;;4.70;101571.00;;;;5111989;28;20146;-76
2021/07/04 07:29:50;;;;;;;14.73;12.05;;;;;4.60;101548.00;;;;5135533;28;20034;-77
2021/07/04 07:32:16;;;;;;;14.13;11.43;;;;;4.40;101532.00;;;;5136744;28;20030;-76
2021/07/04 07:34:43;;;;;;;18.67;11.80;;;;;4.50;101559.00;;;;5120483;28;20530;-77
2021/07/04 07:37:09;;;;;;;14.40;10.88;;;;;4.60;101565.00;;;;5111537;28;20035;-77
2021/07/04 07:39:36;;;;;;;14.18;10.63;;;;;4.60;101557.00;;;;5110747;28;20027;-77
2021/07/04 07:42:03;;;;;;;14.70;11.77;;;;;4.50;101575.00;;;;5110536;28;20032;-77
2021/07/04 07:44:29;;;;;;;16.35;11.48;;;;;4.50;101559.00;;;;5110595;28;20073;-77
2021/07/04 07:46:56;;;;;;;13.38;10.98;;;;;4.40;101556.00;;;;5091986;28;20429;-77
2021/07/04 07:49:23;;;;;;;17.02;11.15;;;;;4.50;101557.00;;;;5109714;28;20080;-78
2021/07/04 07:51:49;;;;;;;14.57;10.55;;;;;4.50;101584.00;;;;5109925;28;20050;-77
2021/07/04 07:54:18;;;;;;;13.82;10.82;;;;;4.50;101560.00;;;;5110153;28;20035;-77
2021/07/04 07:56:46;;;;;;;12.65;10.57;;;;;4.40;101563.00;;;;5110166;28;20074;-77
2021/07/04 07:59:13;;;;;;;16.80;11.85;;;;;4.40;101559.00;;;;5110131;28;20388;-77
2021/07/04 08:01:40;;;;;;;15.45;11.55;;;;;4.40;101558.00;;;;5109704;28;20460;-78
2021/07/04 08:04:06;;;;;;;18.88;12.00;;;;;4.40;101566.00;;;;5110119;28;20042;-77
2021/07/04 08:06:33;;;;;;;15.27;12.00;;;;;4.60;101583.00;;;;5109413;28;20039;-78
2021/07/04 08:08:59;;;;;;;13.82;12.13;;;;;4.50;101549.00;;;;5109747;28;20371;-77
2021/07/04 08:11:26;;;;;;;13.82;11.52;;;;;4.50;101567.00;;;;5110488;28;20106;-78
2021/07/04 08:13:53;;;;;;;15.95;11.00;;;;;4.50;101549.00;;;;5109916;28;20032;-78
2021/07/04 08:16:19;;;;;;;17.95;11.95;;;;;4.40;101565.00;;;;5109304;28;20589;-77
2021/07/04 08:18:46;;;;;;;13.32;11.30;;;;;4.40;101569.00;;;;5109328;28;20399;-77
2021/07/04 08:21:13;;;;;;;15.05;10.68;;;;;4.40;101590.00;;;;5109574;28;20039;-77
2021/07/04 08:23:39;;;;;;;13.05;10.32;;;;;4.40;101573.00;;;;5109791;28;20545;-78
2021/07/04 08:26:06;;;;;;;21.20;12.23;;;;;4.30;101583.00;;;;5109972;28;20119;-77
2021/07/04 08:28:33;;;;;;;16.55;12.18;;;;;4.30;101575.00;;;;5109385;28;20536;-77
2021/07/04 08:30:59;;;;;;;21.88;12.23;;;;;4.30;101594.00;;;;5108990;28;20043;-78
2021/07/04 08:33:26;;;;;;;15.50;12.80;;;;;4.30;101571.00;;;;5109521;28;20032;-77
2021/07/04 08:35:52;;;;;;;13.70;10.88;;;;;4.10;101596.00;;;;5110485;28;20542;-77
2021/07/04 08:38:19;;;;;;;81.15;12.82;;;;;4.10;101584.00;;;;5109749;28;20024;-78
2021/07/04 08:40:46;;;;;;;17.40;11.73;;;;;4.00;101589.00;;;;5109549;28;20479;-77
2021/07/04 08:43:34;;;;;;;14.15;11.90;;;;;4.00;101602.00;;;;5108582;28;20034;-78
2021/07/04 08:46:01;;;;;;;14.98;11.18;;;;;4.00;101573.00;;;;5109559;28;20399;-78
2021/07/04 08:48:28;;;;;;;17.25;12.25;;;;;4.00;101576.00;;;;5108940;28;20061;-78
2021/07/04 08:50:55;;;;;;;22.48;11.55;;;;;4.10;101585.00;;;;5109184;28;20475;-78
2021/07/04 08:53:21;;;;;;;17.55;10.48;;;;;4.10;101581.00;;;;5109161;28;20030;-79
2021/07/04 08:55:48;;;;;;;29.27;10.75;;;;;4.10;101586.00;;;;5108431;28;20031;-78
2021/07/04 08:58:22;;;;;;;11.35;8.93;;;;;3.80;101591.00;;;;5108938;28;20032;-77
2021/07/04 09:01:17;;;;;;;10.60;9.50;;;;;3.80;101612.00;;;;5109648;28;20138;-77
2021/07/04 09:03:48;;;;;;;9.50;8.20;;;;;3.80;101598.00;;;;5108772;28;20132;-78
2021/07/04 09:06:34;;;;;;;11.90;10.20;;;;;3.80;101587.00;;;;5108650;28;20499;-78
2021/07/04 09:09:14;;;;;;;15.90;9.07;;;;;3.90;101588.00;;;;5108346;28;20070;-78
2021/07/04 09:12:02;;;;;;;33.17;10.18;;;;;3.90;101603.00;;;;5107919;28;20444;-78
2021/07/04 09:14:32;;;;;;;10.85;8.95;;;;;3.90;101617.00;;;;5106973;28;20047;-78
2021/07/04 09:16:59;;;;;;;10.98;9.38;;;;;3.70;101595.00;;;;5106791;28;20439;-78
2021/07/04 09:19:26;;;;;;;10.73;8.48;;;;;3.60;101585.00;;;;5106372;28;20118;-78
2021/07/04 09:22:01;;;;;;;9.43;8.52;;;;;3.50;101582.00;;;;5108921;28;20077;-78
2021/07/04 09:24:43;;;;;;;14.02;9.20;;;;;3.60;101592.00;;;;5108539;28;20057;-77
2021/07/04 09:27:14;;;;;;;;;;;;;3.60;101650.00;;;;5108231;28;20080;-76
2021/07/04 09:29:53;;;;;;;41.70;9.23;;;;;3.60;101643.00;;;;5107282;28;20378;-78
2021/07/04 09:32:26;;;;;;;16.70;8.75;;;;;3.70;101633.00;;;;5107860;28;20027;-78
2021/07/04 09:35:04;;;;;;;9.63;7.85;;;;;3.60;101602.00;;;;5108267;28;20036;-78
2021/07/04 09:37:34;;;;;;;9.65;8.70;;;;;3.70;101649.00;;;;5108648;28;20076;-77
2021/07/04 09:40:10;;;;;;;9.98;8.82;;;;;3.70;101649.00;;;;5108338;28;20029;-76
2021/07/04 09:43:06;;;;;;;10.23;9.02;;;;;3.60;101626.00;;;;5107746;28;20078;-78
2021/07/04 09:45:46;;;;;;;10.45;8.30;;;;;3.80;101634.00;;;;5107799;28;20038;-77
2021/07/04 09:48:15;;;;;;;10.85;9.38;;;;;3.80;101595.00;;;;5107556;28;20047;-78
2021/07/04 09:50:46;;;;;;;8.77;7.88;;;;;3.70;101605.00;;;;5107791;28;20032;-78
2021/07/04 09:53:13;;;;;;;;;;;;;3.60;101651.00;;;;5108907;28;20126;-76
2021/07/04 09:55:40;;;;;;;13.75;7.85;;;;;3.60;101613.00;;;;5107785;28;19911;-78
2021/07/04 09:58:14;;;;;;;23.40;7.95;;;;;3.60;101648.00;;;;5107816;28;20028;-78
2021/07/04 10:00:43;;;;;;;9.25;8.32;;;;;3.60;101648.00;;;;5107167;28;20424;-79
2021/07/04 10:03:22;;;;;;;9.82;8.38;;;;;3.60;101637.00;;;;5107502;28;20035;-78
2021/07/04 10:05:55;;;;;;;8.68;7.82;;;;;3.60;101634.00;;;;5108070;28;20465;-78
2021/07/04 10:08:26;;;;;;;11.43;9.35;;;;;3.50;101647.00;;;;5107524;28;20038;-78
2021/07/04 10:10:56;;;;;;;9.33;7.60;;;;;3.50;101666.00;;;;5107669;28;20023;-78
2021/07/04 10:13:23;;;;;;;9.88;7.40;;;;;3.50;101652.00;;;;5107602;28;20277;-78
2021/07/04 10:15:50;;;;;;;10.65;8.15;;;;;3.60;101644.00;;;;5089889;28;20482;-78
2021/07/04 10:18:18;;;;;;;8.93;7.85;;;;;3.60;101632.00;;;;5107193;28;20402;-78
2021/07/04 10:20:46;;;;;;;9.18;8.20;;;;;3.70;101644.00;;;;5089233;28;20031;-78
2021/07/04 10:23:15;;;;;;;9.27;8.27;;;;;3.70;101665.00;;;;5107033;28;20084;-78
2021/07/04 10:25:43;;;;;;;9.57;8.60;;;;;3.70;101649.00;;;;5107003;28;20024;-79
2021/07/04 10:28:12;;;;;;;13.65;9.65;;;;;3.80;101617.00;;;;5088698;28;20114;-78
2021/07/04 10:30:40;;;;;;;14.32;9.45;;;;;3.90;101627.00;;;;5107244;28;20038;-78
2021/07/04 10:33:20;;;;;;;12.02;9.98;;;;;4.00;101644.00;;;;5107149;28;20409;-78
2021/07/04 10:36:22;;;;;;;12.95;9.68;;;;;4.10;101649.00;;;;5107069;28;20050;-78
2021/07/04 10:38:56;;;;;;;12.45;9.80;;;;;4.20;101665.00;;;;5108053;28;20046;-79
2021/07/04 10:41:34;;;;;;;16.17;10.35;;;;;4.30;101644.00;;;;5107581;28;20486;-78
2021/07/04 10:44:11;;;;;;;22.70;11.85;;;;;4.50;101670.00;;;;5106910;28;20099;-78
2021/07/04 10:46:44;;;;;;;45.38;14.07;;;;;4.70;101673.00;;;;5106671;28;20062;-78
2021/07/04 10:49:20;;;;;;;63.53;14.63;;;;;4.80;101664.00;;;;5106990;28;20027;-78
2021/07/04 10:52:05;;;;;;;93.07;11.73;;;;;4.70;101671.00;;;;5106985;28;20077;-78
2021/07/04 10:54:40;;;;;;;165.32;12.50;;;;;4.70;101670.00;;;;5106946;28;20078;-78
2021/07/04 10:57:11;;;;;;;152.90;14.85;;;;;4.80;101637.00;;;;5106714;28;20053;-78
2021/07/04 10:59:59;;;;;;;107.00;11.80;;;;;4.90;101665.00;;;;5107220;28;20433;-77
2021/07/04 11:02:46;;;;;;;101.55;10.85;;;;;5.10;101649.00;;;;5107096;28;20135;-77
2021/07/04 11:05:33;;;;;;;25.60;7.93;;;;;5.20;101657.00;;;;5111364;28;20102;-77
2021/07/04 11:08:00;;;;;;;10.60;7.10;;;;;5.50;101639.00;;;;5111226;28;20039;-79
2021/07/04 11:10:27;;;;;;;7.78;6.65;;;;;6.00;101633.00;;;;5110974;28;20036;-78
2021/07/04 11:12:57;;;;;;;7.60;6.53;;;;;6.90;101576.00;;;;5110825;28;20039;-78
2021/07/04 11:15:23;;;;;;;15.00;6.93;;;;;7.90;101568.00;;;;5110874;28;20502;-78
2021/07/04 11:17:56;;;;;;;7.47;5.78;;;;;8.50;101595.00;;;;5110654;28;20587;-78
2021/07/04 11:20:52;;;;;;;6.45;5.70;;;;;7.80;101637.00;;;;5110960;28;20031;-78
2021/07/04 11:23:19;;;;;;;6.47;5.18;;;;;8.20;101628.00;;;;5110735;28;20028;-78
2021/07/04 11:25:52;;;;;;;9.70;5.75;;;;;9.20;101587.00;;;;5092632;28;20037;-79
2021/07/04 11:28:18;;;;;;;6.93;4.95;;;;;9.70;101585.00;;;;5111536;28;20031;-78
2021/07/04 11:30:55;;;;;;;5.18;4.68;;;;;10.00;101591.00;;;;5110679;28;20035;-78
2021/07/04 11:33:35;;;;;;;7.82;4.82;;;;;10.20;101559.00;;;;5110636;28;20080;-76
2021/07/04 11:36:16;;;;;;;5.75;4.30;;;;;11.30;101554.00;;;;5110340;28;20030;-78
2021/07/04 11:39:10;;;;;;;5.70;5.10;;;;;12.00;101548.00;;;;5110625;28;20023;-77
2021/07/04 11:41:41;;;;;;;5.45;3.78;;;;;12.00;101540.00;;;;5110554;28;20425;-77
2021/07/04 11:44:14;;;;;;;7.63;3.75;;;;;12.30;101537.00;;;;5109891;28;20575;-75
2021/07/04 11:46:43;;;;;;;5.10;3.88;;;;;12.70;101497.00;;;;5110418;28;20031;-78
2021/07/04 11:49:18;;;;;;;5.35;4.00;;;;;13.30;101499.00;;;;5110148;28;20031;-76
2021/07/04 11:52:11;;;;;;;8.05;3.75;;;;;13.60;101535.00;;;;5109818;28;20474;-76
2021/07/04 11:54:38;;;;;;;6.50;3.33;;;;;13.70;101506.00;;;;5107544;28;20051;-76
2021/07/04 11:59:54;;;;;;;3.88;3.58;;;;;14.80;101517.00;;;;5110235;28;20088;-76
2021/07/04 12:02:21;;;;;;;3.78;3.47;;;;;14.70;101542.00;;;;5109672;28;20047;-75
2021/07/04 12:04:48;;;;;;;4.38;3.50;;;;;14.10;101546.00;;;;5109092;28;20519;-76
2021/07/04 12:07:17;;;;;;;9.63;4.60;;;;;13.90;101552.00;;;;5109816;28;20059;-75
2021/07/04 12:09:54;;;;;;;6.90;3.92;;;;;14.10;101577.00;;;;5109698;28;20552;-76
2021/07/04 12:12:25;;;;;;;16.70;10.38;;;;;13.90;101600.00;;;;5110055;28;20038;-75